createdAt,value
2022-09-03T00:00:45.675Z,1008.70
2022-09-03T00:01:45.735Z,1008.70
2022-09-03T00:02:45.838Z,1008.74
2022-09-03T00:03:45.546Z,1008.72
2022-09-03T00:04:45.504Z,1008.68
2022-09-03T00:05:45.459Z,1008.71
2022-09-03T00:06:45.414Z,1008.67
2022-09-03T00:07:45.371Z,1008.72
2022-09-03T00:08:45.327Z,1008.69
2022-09-03T00:09:45.285Z,1008.69
2022-09-03T00:10:45.239Z,1008.67
2022-09-03T00:11:45.202Z,1008.66
2022-09-03T00:12:45.153Z,1008.68
2022-09-03T00:13:45.112Z,1008.66
2022-09-03T00:14:45.068Z,1008.69
2022-09-03T00:15:45.091Z,1008.67
2022-09-03T00:16:44.986Z,1008.67
2022-09-03T00:17:44.942Z,1008.69
2022-09-03T00:18:44.895Z,1008.67
2022-09-03T00:19:44.863Z,1008.70
2022-09-03T00:20:44.815Z,1008.68
2022-09-03T00:21:44.787Z,1008.70
2022-09-03T00:22:44.725Z,1008.65
2022-09-03T00:23:44.682Z,1008.65
2022-09-03T00:24:44.644Z,1008.66
2022-09-03T00:25:44.597Z,1008.65
2022-09-03T00:26:44.548Z,1008.69
2022-09-03T00:27:44.507Z,1008.64
2022-09-03T00:28:44.462Z,1008.61
2022-09-03T00:29:44.420Z,1008.63
2022-09-03T00:30:44.380Z,1008.60
2022-09-03T00:31:44.339Z,1008.61
2022-09-03T00:32:44.292Z,1008.59
2022-09-03T00:33:44.249Z,1008.63
2022-09-03T00:34:44.206Z,1008.62
2022-09-03T00:35:44.162Z,1008.59
2022-09-03T00:36:44.119Z,1008.63
2022-09-03T00:37:44.075Z,1008.62
2022-09-03T00:38:44.032Z,1008.63
2022-09-03T00:39:44.046Z,1008.62
2022-09-03T00:40:43.950Z,1008.65
2022-09-03T00:41:43.905Z,1008.64
2022-09-03T00:42:44.063Z,1008.65
2022-09-03T00:43:43.818Z,1008.65
2022-09-03T00:44:43.772Z,1008.64
2022-09-03T00:45:43.732Z,1008.68
2022-09-03T00:46:43.742Z,1008.63
2022-09-03T00:47:43.645Z,1008.66
2022-09-03T00:48:43.600Z,1008.64
2022-09-03T00:49:43.558Z,1008.65
2022-09-03T00:50:43.517Z,1008.64
2022-09-03T00:51:43.471Z,1008.65
2022-09-03T00:52:43.427Z,1008.63
2022-09-03T00:53:43.384Z,1008.64
2022-09-03T00:54:43.340Z,1008.66
2022-09-03T00:55:43.306Z,1008.63
2022-09-03T00:56:43.260Z,1008.64
2022-09-03T00:57:43.210Z,1008.68
2022-09-03T00:58:43.174Z,1008.66
2022-09-03T00:59:43.128Z,1008.66
2022-09-03T01:00:43.080Z,1008.68
2022-09-03T01:01:43.170Z,1008.69
2022-09-03T01:02:43.165Z,1008.69
2022-09-03T01:03:42.956Z,1008.69
2022-09-03T01:04:42.908Z,1008.69
2022-09-03T01:05:42.866Z,1008.70
2022-09-03T01:06:42.821Z,1008.71
2022-09-03T01:07:42.779Z,1008.71
2022-09-03T01:08:44.036Z,1008.70
2022-09-03T01:09:42.693Z,1008.73
2022-09-03T01:10:42.650Z,1008.71
2022-09-03T01:11:42.606Z,1008.69
2022-09-03T01:12:42.563Z,1008.72
2022-09-03T01:13:42.521Z,1008.70
2022-09-03T01:14:42.475Z,1008.66
2022-09-03T01:15:42.545Z,1008.67
2022-09-03T01:16:42.390Z,1008.70
2022-09-03T01:17:42.346Z,1008.68
2022-09-03T01:18:42.300Z,1008.71
2022-09-03T01:19:42.259Z,1008.66
2022-09-03T01:20:42.216Z,1008.69
2022-09-03T01:21:42.174Z,1008.67
2022-09-03T01:22:42.128Z,1008.71
2022-09-03T01:23:42.085Z,1008.71
2022-09-03T01:24:42.043Z,1008.70
2022-09-03T01:25:42.001Z,1008.74
2022-09-03T01:26:41.955Z,1008.70
2022-09-03T01:27:41.911Z,1008.73
2022-09-03T01:28:41.868Z,1008.67
2022-09-03T01:29:41.823Z,1008.71
2022-09-03T01:30:41.837Z,1008.70
2022-09-03T01:31:41.736Z,1008.69
2022-09-03T01:32:41.694Z,1008.72
2022-09-03T01:33:41.655Z,1008.69
2022-09-03T01:34:41.607Z,1008.72
2022-09-03T01:35:41.562Z,1008.74
2022-09-03T01:36:41.518Z,1008.72
2022-09-03T01:37:41.477Z,1008.70
2022-09-03T01:38:41.430Z,1008.68
2022-09-03T01:39:41.449Z,1008.67
2022-09-03T01:40:41.347Z,1008.68
2022-09-03T01:41:41.305Z,1008.65
2022-09-03T01:42:41.257Z,1008.67
2022-09-03T01:43:45.250Z,1008.68
2022-09-03T01:44:41.170Z,1008.72
2022-09-03T01:45:51.191Z,1008.71
2022-09-03T01:46:41.241Z,1008.72
2022-09-03T01:47:41.040Z,1008.68
2022-09-03T01:48:40.993Z,1008.65
2022-09-03T01:49:40.952Z,1008.72
2022-09-03T01:50:40.908Z,1008.70
2022-09-03T01:51:40.870Z,1008.67
2022-09-03T01:52:41.024Z,1008.68
2022-09-03T01:53:40.777Z,1008.67
2022-09-03T01:54:40.735Z,1008.65
2022-09-03T01:55:40.696Z,1008.67
2022-09-03T01:56:40.648Z,1008.64
2022-09-03T01:57:42.078Z,1008.63
2022-09-03T01:58:40.563Z,1008.62
2022-09-03T01:59:40.518Z,1008.62
2022-09-03T02:00:40.469Z,1008.65
2022-09-03T02:01:40.505Z,1008.64
2022-09-03T02:02:40.484Z,1008.65
2022-09-03T02:03:40.784Z,1008.64
2022-09-03T02:04:40.297Z,1008.62
2022-09-03T02:05:40.258Z,1008.66
2022-09-03T02:06:40.208Z,1008.65
2022-09-03T02:07:40.168Z,1008.66
2022-09-03T02:08:40.123Z,1008.66
2022-09-03T02:09:40.083Z,1008.63
2022-09-03T02:11:39.990Z,1008.58
2022-09-03T02:12:39.951Z,1008.58
2022-09-03T02:13:39.901Z,1008.61
2022-09-03T02:14:39.858Z,1008.62
2022-09-03T02:15:39.928Z,1008.54
2022-09-03T02:16:39.771Z,1008.57
2022-09-03T02:17:39.729Z,1008.56
2022-09-03T02:18:39.683Z,1008.55
2022-09-03T02:19:39.640Z,1008.57
2022-09-03T02:20:39.615Z,1008.53
2022-09-03T02:21:39.554Z,1008.55
2022-09-03T02:22:39.510Z,1008.56
2022-09-03T02:23:39.462Z,1008.57
2022-09-03T02:24:39.421Z,1008.54
2022-09-03T02:25:39.375Z,1008.52
2022-09-03T02:26:39.332Z,1008.53
2022-09-03T02:27:39.291Z,1008.56
2022-09-03T02:28:39.244Z,1008.54
2022-09-03T02:29:39.204Z,1008.56
2022-09-03T02:30:39.199Z,1008.52
2022-09-03T02:31:39.112Z,1008.51
2022-09-03T02:32:39.072Z,1008.51
2022-09-03T02:33:39.021Z,1008.55
2022-09-03T02:34:38.987Z,1008.52
2022-09-03T02:35:38.936Z,1008.58
2022-09-03T02:36:38.910Z,1008.55
2022-09-03T02:37:38.875Z,1008.59
2022-09-03T02:38:38.805Z,1008.57
2022-09-03T02:39:39.514Z,1008.57
2022-09-03T02:40:38.717Z,1008.60
2022-09-03T02:41:38.671Z,1008.56
2022-09-03T02:42:38.638Z,1008.56
2022-09-03T02:43:38.585Z,1008.58
2022-09-03T02:44:38.542Z,1008.62
2022-09-03T02:45:38.616Z,1008.62
2022-09-03T02:46:38.456Z,1008.55
2022-09-03T02:47:38.407Z,1008.60
2022-09-03T02:48:38.366Z,1008.61
2022-09-03T02:49:38.324Z,1008.64
2022-09-03T02:50:38.279Z,1008.62
2022-09-03T02:51:38.232Z,1008.61
2022-09-03T02:52:38.194Z,1008.59
2022-09-03T02:53:38.143Z,1008.60
2022-09-03T02:54:38.101Z,1008.60
2022-09-03T02:55:38.056Z,1008.57
2022-09-03T02:56:38.015Z,1008.58
2022-09-03T02:57:37.969Z,1008.60
2022-09-03T02:58:37.929Z,1008.57
2022-09-03T02:59:37.884Z,1008.58
2022-09-03T03:00:37.838Z,1008.54
2022-09-03T03:01:37.893Z,1008.57
2022-09-03T03:02:37.844Z,1008.58
2022-09-03T03:03:37.704Z,1008.62
2022-09-03T03:04:37.661Z,1008.59
2022-09-03T03:05:37.616Z,1008.55
2022-09-03T03:06:37.576Z,1008.57
2022-09-03T03:07:37.526Z,1008.59
2022-09-03T03:08:37.492Z,1008.59
2022-09-03T03:09:37.439Z,1008.59
2022-09-03T03:10:37.396Z,1008.60
2022-09-03T03:11:37.355Z,1008.59
2022-09-03T03:12:37.309Z,1008.62
2022-09-03T03:13:37.262Z,1008.60
2022-09-03T03:14:37.221Z,1008.58
2022-09-03T03:15:37.177Z,1008.59
2022-09-03T03:16:37.163Z,1008.60
2022-09-03T03:17:37.090Z,1008.59
2022-09-03T03:18:37.049Z,1008.55
2022-09-03T03:19:37.002Z,1008.53
2022-09-03T03:20:36.959Z,1008.55
2022-09-03T03:21:36.911Z,1008.56
2022-09-03T03:22:36.870Z,1008.55
2022-09-03T03:23:36.829Z,1008.52
2022-09-03T03:24:36.782Z,1008.52
2022-09-03T03:25:36.734Z,1008.53
2022-09-03T03:26:36.697Z,1008.57
2022-09-03T03:27:36.645Z,1008.51
2022-09-03T03:28:36.607Z,1008.51
2022-09-03T03:29:36.558Z,1008.52
2022-09-03T03:30:36.543Z,1008.54
2022-09-03T03:31:36.469Z,1008.53
2022-09-03T03:32:36.630Z,1008.50
2022-09-03T03:33:36.382Z,1008.50
2022-09-03T03:34:36.338Z,1008.47
2022-09-03T03:35:36.297Z,1008.45
2022-09-03T03:36:36.252Z,1008.47
2022-09-03T03:37:36.204Z,1008.45
2022-09-03T03:38:36.166Z,1008.45
2022-09-03T03:39:36.161Z,1008.47
2022-09-03T03:40:36.078Z,1008.45
2022-09-03T03:41:36.030Z,1008.46
2022-09-03T03:42:35.990Z,1008.40
2022-09-03T03:43:35.952Z,1008.42
2022-09-03T03:44:35.897Z,1008.41
2022-09-03T03:45:35.943Z,1008.41
2022-09-03T03:46:35.808Z,1008.39
2022-09-03T03:47:35.761Z,1008.39
2022-09-03T03:48:35.720Z,1008.40
2022-09-03T03:49:35.676Z,1008.41
2022-09-03T03:50:35.633Z,1008.37
2022-09-03T03:51:35.586Z,1008.38
2022-09-03T03:52:35.543Z,1008.40
2022-09-03T03:53:35.497Z,1008.39
2022-09-03T03:54:35.454Z,1008.39
2022-09-03T03:55:35.442Z,1008.42
2022-09-03T03:56:35.368Z,1008.42
2022-09-03T03:57:35.325Z,1008.40
2022-09-03T03:58:35.279Z,1008.38
2022-09-03T03:59:35.233Z,1008.38
2022-09-03T04:00:35.192Z,1008.38
2022-09-03T04:01:35.228Z,1008.39
2022-09-03T04:02:39.042Z,1008.40
2022-09-03T04:03:35.056Z,1008.38
2022-09-03T04:04:35.022Z,1008.38
2022-09-03T04:05:34.966Z,1008.31
2022-09-03T04:06:35.123Z,1008.34
2022-09-03T04:07:34.888Z,1008.31
2022-09-03T04:08:34.835Z,1008.32
2022-09-03T04:09:34.791Z,1008.31
2022-09-03T04:10:34.750Z,1008.24
2022-09-03T04:11:34.700Z,1008.27
2022-09-03T04:12:34.659Z,1008.27
2022-09-03T04:13:34.615Z,1008.27
2022-09-03T04:14:34.568Z,1008.26
2022-09-03T04:15:34.526Z,1008.27
2022-09-03T04:16:34.566Z,1008.23
2022-09-03T04:17:34.437Z,1008.25
2022-09-03T04:18:34.391Z,1008.24
2022-09-03T04:19:34.349Z,1008.25
2022-09-03T04:20:34.302Z,1008.25
2022-09-03T04:21:34.257Z,1008.26
2022-09-03T04:22:34.213Z,1008.23
2022-09-03T04:23:34.189Z,1008.27
2022-09-03T04:24:34.124Z,1008.27
2022-09-03T04:25:34.079Z,1008.24
2022-09-03T04:26:34.043Z,1008.23
2022-09-03T04:27:33.995Z,1008.23
2022-09-03T04:28:33.959Z,1008.22
2022-09-03T04:29:33.904Z,1008.21
2022-09-03T04:30:33.956Z,1008.18
2022-09-03T04:31:33.818Z,1008.18
2022-09-03T04:32:33.771Z,1008.17
2022-09-03T04:33:33.726Z,1008.20
2022-09-03T04:34:33.682Z,1008.17
2022-09-03T04:35:33.679Z,1008.15
2022-09-03T04:36:33.796Z,1008.14
2022-09-03T04:37:33.750Z,1008.17
2022-09-03T04:38:33.503Z,1008.16
2022-09-03T04:39:33.525Z,1008.12
2022-09-03T04:40:33.414Z,1008.11
2022-09-03T04:41:33.379Z,1008.14
2022-09-03T04:42:33.325Z,1008.16
2022-09-03T04:43:33.288Z,1008.15
2022-09-03T04:44:33.261Z,1008.15
2022-09-03T04:45:33.246Z,1008.15
2022-09-03T04:46:33.305Z,1008.21
2022-09-03T04:47:33.105Z,1008.15
2022-09-03T04:48:33.059Z,1008.16
2022-09-03T04:49:33.220Z,1008.20
2022-09-03T04:50:32.970Z,1008.17
2022-09-03T04:51:32.931Z,1008.19
2022-09-03T04:52:32.883Z,1008.18
2022-09-03T04:53:32.844Z,1008.16
2022-09-03T04:54:32.796Z,1008.18
2022-09-03T04:55:32.755Z,1008.21
2022-09-03T04:56:32.706Z,1008.26
2022-09-03T04:57:32.664Z,1008.24
2022-09-03T04:58:32.619Z,1008.25
2022-09-03T04:59:32.573Z,1008.24
2022-09-03T05:00:32.530Z,1008.28
2022-09-03T05:01:32.604Z,1008.24
2022-09-03T05:02:32.476Z,1008.32
2022-09-03T05:03:32.396Z,1008.28
2022-09-03T05:04:32.349Z,1008.27
2022-09-03T05:05:32.307Z,1008.31
2022-09-03T05:06:32.264Z,1008.31
2022-09-03T05:07:32.220Z,1008.29
2022-09-03T05:08:32.174Z,1008.32
2022-09-03T05:09:32.132Z,1008.34
2022-09-03T05:10:32.086Z,1008.31
2022-09-03T05:11:32.043Z,1008.32
2022-09-03T05:12:32.004Z,1008.29
2022-09-03T05:13:31.958Z,1008.34
2022-09-03T05:14:31.908Z,1008.33
2022-09-03T05:15:31.863Z,1008.31
2022-09-03T05:16:31.857Z,1008.29
2022-09-03T05:17:34.098Z,1008.29
2022-09-03T05:18:31.732Z,1008.28
2022-09-03T05:19:31.690Z,1008.27
2022-09-03T05:20:31.642Z,1008.27
2022-09-03T05:21:31.599Z,1008.27
2022-09-03T05:22:31.559Z,1008.30
2022-09-03T05:23:35.633Z,1008.31
2022-09-03T05:24:31.467Z,1008.26
2022-09-03T05:25:31.418Z,1008.27
2022-09-03T05:26:31.383Z,1008.26
2022-09-03T05:27:31.335Z,1008.26
2022-09-03T05:28:31.284Z,1008.32
2022-09-03T05:29:31.242Z,1008.31
2022-09-03T05:30:31.198Z,1008.27
2022-09-03T05:31:31.212Z,1008.29
2022-09-03T05:32:31.112Z,1008.28
2022-09-03T05:33:31.066Z,1008.25
2022-09-03T05:34:31.017Z,1008.28
2022-09-03T05:35:30.996Z,1008.29
2022-09-03T05:36:30.933Z,1008.31
2022-09-03T05:37:30.885Z,1008.31
2022-09-03T05:38:30.852Z,1008.32
2022-09-03T05:39:30.844Z,1008.33
2022-09-03T05:40:30.754Z,1008.34
2022-09-03T05:41:30.720Z,1008.35
2022-09-03T05:42:30.667Z,1008.34
2022-09-03T05:43:30.624Z,1008.35
2022-09-03T05:44:30.579Z,1008.32
2022-09-03T05:45:30.555Z,1008.37
2022-09-03T05:46:30.487Z,1008.37
2022-09-03T05:47:30.443Z,1008.34
2022-09-03T05:48:30.401Z,1008.34
2022-09-03T05:49:30.358Z,1008.35
2022-09-03T05:50:30.308Z,1008.36
2022-09-03T05:51:30.274Z,1008.35
2022-09-03T05:52:30.221Z,1008.38
2022-09-03T05:53:30.181Z,1008.36
2022-09-03T05:54:30.131Z,1008.36
2022-09-03T05:55:30.090Z,1008.37
2022-09-03T05:56:30.248Z,1008.38
2022-09-03T05:57:29.999Z,1008.38
2022-09-03T05:58:29.956Z,1008.39
2022-09-03T05:59:29.920Z,1008.35
2022-09-03T06:00:29.879Z,1008.40
2022-09-03T06:01:29.833Z,1008.40
2022-09-03T06:02:30.077Z,1008.41
2022-09-03T06:03:29.973Z,1008.40
2022-09-03T06:04:29.703Z,1008.36
2022-09-03T06:05:29.646Z,1008.39
2022-09-03T06:06:29.612Z,1008.41
2022-09-03T06:07:29.567Z,1008.43
2022-09-03T06:11:01.121Z,1008.45
2022-09-03T06:12:04.000Z,1008.42
2022-09-03T06:13:01.031Z,1008.42
2022-09-03T06:14:00.985Z,1008.44
2022-09-03T06:15:00.950Z,1008.48
2022-09-03T06:16:00.940Z,1008.46
2022-09-03T06:17:00.891Z,1008.47
2022-09-03T06:18:00.811Z,1008.50
2022-09-03T06:19:00.917Z,1008.45
2022-09-03T06:20:00.721Z,1008.49
2022-09-03T06:21:00.680Z,1008.49
2022-09-03T06:22:00.636Z,1008.48
2022-09-03T06:23:00.795Z,1008.46
2022-09-03T06:24:00.544Z,1008.48
2022-09-03T06:25:00.503Z,1008.46
2022-09-03T06:26:04.939Z,1008.46
2022-09-03T06:27:00.419Z,1008.47
2022-09-03T06:28:00.381Z,1008.48
2022-09-03T06:29:00.330Z,1008.49
2022-09-03T06:30:00.286Z,1008.51
2022-09-03T06:31:00.242Z,1008.46
2022-09-03T06:32:00.261Z,1008.48
2022-09-03T06:33:00.154Z,1008.46
2022-09-03T06:34:04.014Z,1008.44
2022-09-03T06:35:00.064Z,1008.42
2022-09-03T06:36:00.019Z,1008.45
2022-09-03T06:36:59.981Z,1008.47
2022-09-03T06:38:02.956Z,1008.46
2022-09-03T06:38:59.889Z,1008.46
2022-09-03T06:39:59.890Z,1008.44
2022-09-03T06:40:59.802Z,1008.47
2022-09-03T06:41:59.761Z,1008.45
2022-09-03T06:42:59.718Z,1008.46
2022-09-03T06:43:59.671Z,1008.43
2022-09-03T06:44:59.627Z,1008.46
2022-09-03T06:46:43.079Z,1008.44
2022-09-03T06:47:44.143Z,1008.42
2022-09-03T06:48:42.885Z,1008.40
2022-09-03T06:49:42.841Z,1008.41
2022-09-03T06:50:42.797Z,1008.39
2022-09-03T06:51:42.765Z,1008.40
2022-09-03T06:52:42.707Z,1008.40
2022-09-03T06:53:42.674Z,1008.39
2022-09-03T06:54:42.627Z,1008.44
2022-09-03T06:55:42.595Z,1008.42
2022-09-03T06:56:42.535Z,1008.43
2022-09-03T06:57:42.490Z,1008.38
2022-09-03T06:58:42.449Z,1008.44
2022-09-03T06:59:42.405Z,1008.45
2022-09-03T07:00:42.467Z,1008.46
2022-09-03T07:01:44.285Z,1008.46
2022-09-03T07:02:44.940Z,1008.47
2022-09-03T07:03:42.241Z,1008.49
2022-09-03T07:04:42.187Z,1008.43
2022-09-03T07:05:42.148Z,1008.45
2022-09-03T07:06:42.147Z,1008.47
2022-09-03T07:07:42.054Z,1008.38
2022-09-03T07:08:42.013Z,1008.42
2022-09-03T07:09:45.165Z,1008.39
2022-09-03T07:10:41.934Z,1008.43
2022-09-03T07:11:41.880Z,1008.44
2022-09-03T07:12:41.848Z,1008.36
2022-09-03T07:13:41.795Z,1008.38
2022-09-03T07:14:41.957Z,1008.33
2022-09-03T07:15:41.713Z,1008.44
2022-09-03T07:16:41.788Z,1008.41
2022-09-03T07:17:41.623Z,1008.43
2022-09-03T07:18:41.582Z,1008.45
2022-09-03T07:19:41.538Z,1008.49
2022-09-03T07:20:41.496Z,1008.46
2022-09-03T07:21:45.237Z,1008.47
2022-09-03T07:22:41.410Z,1008.48
2022-09-03T07:23:41.378Z,1008.47
2022-09-03T07:24:41.328Z,1008.47
2022-09-03T07:25:41.289Z,1008.46
2022-09-03T07:26:41.239Z,1008.47
2022-09-03T07:27:41.197Z,1008.46
2022-09-03T07:28:41.156Z,1008.40
2022-09-03T07:29:41.108Z,1008.46
2022-09-03T07:30:41.067Z,1008.45
2022-09-03T07:31:41.158Z,1008.44
2022-09-03T07:32:40.993Z,1008.48
2022-09-03T07:33:40.944Z,1008.43
2022-09-03T07:34:40.896Z,1008.47
2022-09-03T07:35:40.876Z,1008.42
2022-09-03T07:36:40.817Z,1008.46
2022-09-03T07:37:40.784Z,1008.48
2022-09-03T07:38:40.738Z,1008.48
2022-09-03T07:39:40.762Z,1008.46
2022-09-03T07:40:40.641Z,1008.43
2022-09-03T07:41:40.597Z,1008.42
2022-09-03T07:42:40.554Z,1008.45
2022-09-03T07:43:40.511Z,1008.44
2022-09-03T07:44:40.471Z,1008.48
2022-09-03T07:45:40.432Z,1008.49
2022-09-03T07:46:40.470Z,1008.48
2022-09-03T07:47:40.343Z,1008.47
2022-09-03T07:48:40.301Z,1008.48
2022-09-03T07:51:08.704Z,1008.50
2022-09-03T07:52:08.659Z,1008.52
2022-09-03T07:53:08.613Z,1008.50
2022-09-03T07:54:08.566Z,1008.52
2022-09-03T07:55:08.527Z,1008.52
2022-09-03T07:56:08.482Z,1008.49
2022-09-03T07:57:08.444Z,1008.48
2022-09-03T07:58:08.394Z,1008.50
2022-09-03T07:59:08.359Z,1008.53
2022-09-03T08:00:08.316Z,1008.55
2022-09-03T08:01:08.988Z,1008.47
2022-09-03T08:02:08.230Z,1008.50
2022-09-03T08:03:08.182Z,1008.46
2022-09-03T08:04:09.820Z,1008.47
2022-09-03T08:05:08.101Z,1008.48
2022-09-03T08:06:08.055Z,1008.46
2022-09-03T08:07:08.024Z,1008.45
2022-09-03T08:08:07.963Z,1008.44
2022-09-03T08:09:07.926Z,1008.46
2022-09-03T08:10:07.885Z,1008.48
2022-09-03T08:11:07.834Z,1008.43
2022-09-03T08:12:07.792Z,1008.45
2022-09-03T08:13:07.747Z,1008.47
2022-09-03T08:14:07.708Z,1008.49
2022-09-03T08:15:07.671Z,1008.45
2022-09-03T08:16:07.670Z,1008.48
2022-09-03T08:17:07.580Z,1008.52
2022-09-03T08:18:07.554Z,1008.49
2022-09-03T08:19:07.649Z,1008.52
2022-09-03T08:20:07.444Z,1008.48
2022-09-03T08:21:07.411Z,1008.49
2022-09-03T08:22:07.357Z,1008.48
2022-09-03T08:23:07.317Z,1008.49
2022-09-03T08:24:07.282Z,1008.48
2022-09-03T08:25:07.236Z,1008.47
2022-09-03T08:26:07.186Z,1008.50
2022-09-03T08:27:07.148Z,1008.50
2022-09-03T08:28:07.099Z,1008.52
2022-09-03T08:29:07.064Z,1008.55
2022-09-03T08:30:07.015Z,1008.53
2022-09-03T08:31:07.066Z,1008.53
2022-09-03T08:32:06.929Z,1008.53
2022-09-03T08:33:06.901Z,1008.49
2022-09-03T08:34:07.209Z,1008.50
2022-09-03T08:35:06.803Z,1008.50
2022-09-03T08:36:06.759Z,1008.47
2022-09-03T08:37:06.727Z,1008.47
2022-09-03T08:38:06.678Z,1008.50
2022-09-03T08:39:06.647Z,1008.49
2022-09-03T08:40:06.594Z,1008.47
2022-09-03T08:41:06.544Z,1008.49
2022-09-03T08:42:06.503Z,1008.47
2022-09-03T08:43:06.966Z,1008.50
2022-09-03T08:44:06.420Z,1008.54
2022-09-03T08:45:06.389Z,1008.50
2022-09-03T08:46:06.407Z,1008.49
2022-09-03T08:47:06.299Z,1008.47
2022-09-03T08:48:06.255Z,1008.49
2022-09-03T08:49:06.209Z,1008.46
2022-09-03T08:50:06.157Z,1008.47
2022-09-03T08:51:06.125Z,1008.43
2022-09-03T08:52:06.075Z,1008.47
2022-09-03T08:53:06.037Z,1008.48
2022-09-03T08:54:06.007Z,1008.42
2022-09-03T08:55:05.948Z,1008.43
2022-09-03T08:56:05.903Z,1008.41
2022-09-03T08:57:05.868Z,1008.44
2022-09-03T08:58:05.823Z,1008.40
2022-09-03T08:59:05.780Z,1008.42
2022-09-03T09:00:05.740Z,1008.39
2022-09-03T09:01:05.710Z,1008.40
2022-09-03T09:02:05.838Z,1008.42
2022-09-03T09:03:05.708Z,1008.41
2022-09-03T09:04:05.569Z,1008.41
2022-09-03T09:05:06.029Z,1008.38
2022-09-03T09:06:05.482Z,1008.42
2022-09-03T09:07:05.457Z,1008.43
2022-09-03T09:08:05.398Z,1008.35
2022-09-03T09:09:05.369Z,1008.38
2022-09-03T09:10:05.314Z,1008.38
2022-09-03T09:11:05.285Z,1008.43
2022-09-03T09:12:05.233Z,1008.44
2022-09-03T09:13:05.188Z,1008.46
2022-09-03T09:14:05.149Z,1008.44
2022-09-03T09:15:05.132Z,1008.47
2022-09-03T09:16:05.201Z,1008.45
2022-09-03T09:17:05.028Z,1008.43
2022-09-03T09:18:04.978Z,1008.45
2022-09-03T09:19:04.942Z,1008.43
2022-09-03T09:20:04.902Z,1008.45
2022-09-03T09:21:04.858Z,1008.46
2022-09-03T09:22:04.808Z,1008.39
2022-09-03T09:23:04.776Z,1008.43
2022-09-03T09:24:04.727Z,1008.46
2022-09-03T09:25:04.688Z,1008.40
2022-09-03T09:26:04.640Z,1008.44
2022-09-03T09:27:04.607Z,1008.41
2022-09-03T09:28:04.564Z,1008.40
2022-09-03T09:29:04.546Z,1008.40
2022-09-03T09:30:04.491Z,1008.43
2022-09-03T09:31:04.551Z,1008.40
2022-09-03T09:32:04.424Z,1008.42
2022-09-03T09:33:04.361Z,1008.40
2022-09-03T09:34:04.527Z,1008.40
2022-09-03T09:35:04.271Z,1008.39
2022-09-03T09:36:04.256Z,1008.39
2022-09-03T09:37:04.188Z,1008.35
2022-09-03T09:38:04.145Z,1008.37
2022-09-03T09:39:04.313Z,1008.35
2022-09-03T09:40:04.124Z,1008.34
2022-09-03T09:41:04.019Z,1008.37
2022-09-03T09:42:03.971Z,1008.38
2022-09-03T09:43:03.972Z,1008.34
2022-09-03T09:44:03.897Z,1008.38
2022-09-03T09:45:03.856Z,1008.37
2022-09-03T09:46:03.837Z,1008.36
2022-09-03T09:47:03.786Z,1008.39
2022-09-03T09:48:03.724Z,1008.41
2022-09-03T09:49:03.690Z,1008.42
2022-09-03T09:50:03.855Z,1008.42
2022-09-03T09:51:03.611Z,1008.44
2022-09-03T09:52:03.557Z,1008.44
2022-09-03T09:53:03.518Z,1008.47
2022-09-03T09:54:03.678Z,1008.44
2022-09-03T09:55:03.434Z,1008.48
2022-09-03T09:56:03.398Z,1008.48
2022-09-03T09:57:03.354Z,1008.46
2022-09-03T09:58:03.319Z,1008.44
2022-09-03T09:59:03.285Z,1008.42
2022-09-03T10:00:03.226Z,1008.47
2022-09-03T10:01:03.190Z,1008.48
2022-09-03T10:02:03.237Z,1008.45
2022-09-03T10:03:03.130Z,1008.46
2022-09-03T10:04:03.060Z,1008.45
2022-09-03T10:05:03.032Z,1008.44
2022-09-03T10:06:02.979Z,1008.49
2022-09-03T10:07:02.950Z,1008.45
2022-09-03T10:08:02.901Z,1008.49
2022-09-03T10:09:02.857Z,1008.52
2022-09-03T10:10:02.812Z,1008.57
2022-09-03T10:11:02.774Z,1008.54
2022-09-03T10:12:02.732Z,1008.54
2022-09-03T10:13:02.691Z,1008.53
2022-09-03T10:14:02.649Z,1008.54
2022-09-03T10:15:02.609Z,1008.50
2022-09-03T10:16:02.615Z,1008.54
2022-09-03T10:17:02.525Z,1008.55
2022-09-03T10:18:02.483Z,1008.58
2022-09-03T10:19:02.444Z,1008.52
2022-09-03T10:20:02.399Z,1008.53
2022-09-03T10:21:02.404Z,1008.54
2022-09-03T10:22:02.317Z,1008.55
2022-09-03T10:23:02.278Z,1008.55
2022-09-03T10:24:07.159Z,1008.51
2022-09-03T10:25:02.197Z,1008.56
2022-09-03T10:26:02.157Z,1008.53
2022-09-03T10:27:02.114Z,1008.59
2022-09-03T10:28:02.088Z,1008.51
2022-09-03T10:29:02.033Z,1008.44
2022-09-03T10:30:01.988Z,1008.50
2022-09-03T10:31:02.013Z,1008.51
2022-09-03T10:32:01.907Z,1008.55
2022-09-03T10:33:01.869Z,1008.58
2022-09-03T10:34:01.828Z,1008.55
2022-09-03T10:35:01.785Z,1008.58
2022-09-03T10:36:01.743Z,1008.58
2022-09-03T10:37:01.706Z,1008.54
2022-09-03T10:38:01.663Z,1008.58
2022-09-03T10:39:01.622Z,1008.52
2022-09-03T10:40:01.661Z,1008.53
2022-09-03T10:41:01.541Z,1008.49
2022-09-03T10:42:01.501Z,1008.50
2022-09-03T10:43:01.463Z,1008.48
2022-09-03T10:44:01.415Z,1008.44
2022-09-03T10:45:01.378Z,1008.42
2022-09-03T10:46:01.390Z,1008.45
2022-09-03T10:47:01.299Z,1008.41
2022-09-03T10:48:01.256Z,1008.42
2022-09-03T10:49:01.222Z,1008.39
2022-09-03T10:50:01.174Z,1008.44
2022-09-03T10:51:01.133Z,1008.41
2022-09-03T10:52:01.092Z,1008.42
2022-09-03T10:53:01.053Z,1008.41
2022-09-03T10:54:01.009Z,1008.47
2022-09-03T10:55:00.970Z,1008.41
2022-09-03T10:56:00.928Z,1008.43
2022-09-03T10:57:00.889Z,1008.43
2022-09-03T10:58:00.884Z,1008.39
2022-09-03T10:59:00.808Z,1008.42
2022-09-03T11:00:00.767Z,1008.43
2022-09-03T11:01:00.791Z,1008.42
2022-09-03T11:02:00.686Z,1008.44
2022-09-03T11:03:00.682Z,1008.40
2022-09-03T11:04:00.605Z,1008.43
2022-09-03T11:05:00.570Z,1008.43
2022-09-03T11:06:00.522Z,1008.47
2022-09-03T11:07:00.484Z,1008.47
2022-09-03T11:08:00.444Z,1008.49
2022-09-03T11:09:05.842Z,1008.51
2022-09-03T11:10:00.362Z,1008.49
2022-09-03T11:12:00.281Z,1008.49
2022-09-03T11:13:00.242Z,1008.49
2022-09-03T11:14:00.203Z,1008.45
2022-09-03T11:15:00.159Z,1008.48
2022-09-03T11:16:00.300Z,1008.48
2022-09-03T11:17:00.080Z,1008.42
2022-09-03T11:18:00.049Z,1008.47
2022-09-03T11:18:59.998Z,1008.49
2022-09-03T11:19:59.961Z,1008.50
2022-09-03T11:20:59.919Z,1008.49
2022-09-03T11:21:59.878Z,1008.48
2022-09-03T11:22:59.838Z,1008.53
2022-09-03T11:23:59.806Z,1008.52
2022-09-03T11:24:59.759Z,1008.55
2022-09-03T11:25:59.718Z,1008.53
2022-09-03T11:26:59.677Z,1008.51
2022-09-03T11:27:59.643Z,1008.54
2022-09-03T11:28:59.598Z,1008.52
2022-09-03T11:29:59.560Z,1008.53
2022-09-03T11:30:59.597Z,1008.55
2022-09-03T11:31:59.480Z,1008.55
2022-09-03T11:32:59.437Z,1008.52
2022-09-03T11:33:59.399Z,1008.54
2022-09-03T11:34:59.361Z,1008.54
2022-09-03T11:35:59.320Z,1008.59
2022-09-03T11:36:59.278Z,1008.55
2022-09-03T11:37:59.237Z,1008.53
2022-09-03T11:38:59.197Z,1008.52
2022-09-03T11:39:59.210Z,1008.50
2022-09-03T11:40:59.156Z,1008.50
2022-09-03T11:41:59.083Z,1008.48
2022-09-03T11:42:59.038Z,1008.50
2022-09-03T11:44:02.546Z,1008.43
2022-09-03T11:44:58.959Z,1008.46
2022-09-03T11:45:58.995Z,1008.45
2022-09-03T11:46:58.882Z,1008.45
2022-09-03T11:47:58.843Z,1008.45
2022-09-03T11:48:58.806Z,1008.42
2022-09-03T11:49:58.764Z,1008.43
2022-09-03T11:50:58.720Z,1008.44
2022-09-03T11:51:58.683Z,1008.37
2022-09-03T11:52:58.642Z,1008.44
2022-09-03T11:53:58.602Z,1008.41
2022-09-03T11:54:58.565Z,1008.42
2022-09-03T11:55:58.524Z,1008.41
2022-09-03T11:56:58.486Z,1008.42
2022-09-03T11:57:58.449Z,1008.39
2022-09-03T11:58:58.405Z,1008.39
2022-09-03T11:59:58.370Z,1008.38
2022-09-03T12:00:58.327Z,1008.40
2022-09-03T12:01:58.291Z,1008.36
2022-09-03T12:02:59.269Z,1008.37
2022-09-03T12:03:58.212Z,1008.32
2022-09-03T12:04:58.301Z,1008.36
2022-09-03T12:05:58.133Z,1008.29
2022-09-03T12:06:58.094Z,1008.35
2022-09-03T12:07:58.052Z,1008.28
2022-09-03T12:08:58.219Z,1008.35
2022-09-03T12:09:57.972Z,1008.29
2022-09-03T12:10:57.939Z,1008.30
2022-09-03T12:11:57.897Z,1008.31